sensor_id;sensor_type;location;lat;lon;timestamp;temperature;humidity
30678;DHT22;17437;47.188;8.896;2023-06-24T00:02:02;18.20;99.90
30678;DHT22;17437;47.188;8.896;2023-06-24T00:04:34;18.00;99.90
30678;DHT22;17437;47.188;8.896;2023-06-24T00:07:06;17.70;99.90
30678;DHT22;17437;47.188;8.896;2023-06-24T00:09:38;17.50;99.90
30678;DHT22;17437;47.188;8.896;2023-06-24T00:12:10;17.40;99.90
30678;DHT22;17437;47.188;8.896;2023-06-24T00:14:43;17.30;99.90
30678;DHT22;17437;47.188;8.896;2023-06-24T00:17:15;17.20;99.90
30678;DHT22;17437;47.188;8.896;2023-06-24T00:19:47;17.10;99.90
30678;DHT22;17437;47.188;8.896;2023-06-24T00:22:19;17.10;99.90
30678;DHT22;17437;47.188;8.896;2023-06-24T00:24:50;17.20;99.90
30678;DHT22;17437;47.188;8.896;2023-06-24T00:27:22;17.10;99.90
30678;DHT22;17437;47.188;8.896;2023-06-24T00:29:53;17.00;99.90
30678;DHT22;17437;47.188;8.896;2023-06-24T00:32:25;16.90;99.90
30678;DHT22;17437;47.188;8.896;2023-06-24T00:34:56;16.90;99.90
30678;DHT22;17437;47.188;8.896;2023-06-24T00:37:30;16.90;99.90
30678;DHT22;17437;47.188;8.896;2023-06-24T00:40:01;16.90;99.90
30678;DHT22;17437;47.188;8.896;2023-06-24T00:42:35;16.90;99.90
30678;DHT22;17437;47.188;8.896;2023-06-24T00:45:08;16.80;99.90
30678;DHT22;17437;47.188;8.896;2023-06-24T00:47:41;16.80;99.90
30678;DHT22;17437;47.188;8.896;2023-06-24T00:50:12;16.70;99.90
30678;DHT22;17437;47.188;8.896;2023-06-24T00:52:44;16.60;99.90
30678;DHT22;17437;47.188;8.896;2023-06-24T00:55:17;16.50;99.90
30678;DHT22;17437;47.188;8.896;2023-06-24T00:57:51;16.50;99.90
30678;DHT22;17437;47.188;8.896;2023-06-24T01:00:24;16.50;99.90
30678;DHT22;17437;47.188;8.896;2023-06-24T01:02:57;16.50;99.90
30678;DHT22;17437;47.188;8.896;2023-06-24T01:05:29;16.50;99.90
30678;DHT22;17437;47.188;8.896;2023-06-24T01:08:04;16.50;99.90
30678;DHT22;17437;47.188;8.896;2023-06-24T01:10:36;16.40;99.90
30678;DHT22;17437;47.188;8.896;2023-06-24T01:13:08;16.40;99.90
30678;DHT22;17437;47.188;8.896;2023-06-24T01:15:39;16.40;99.90
30678;DHT22;17437;47.188;8.896;2023-06-24T01:18:16;16.40;99.90
30678;DHT22;17437;47.188;8.896;2023-06-24T01:20:49;16.40;99.90
30678;DHT22;17437;47.188;8.896;2023-06-24T01:23:53;16.50;99.90
30678;DHT22;17437;47.188;8.896;2023-06-24T01:26:29;16.50;99.90
30678;DHT22;17437;47.188;8.896;2023-06-24T01:29:29;16.40;99.90
30678;DHT22;17437;47.188;8.896;2023-06-24T01:32:03;16.40;99.90
30678;DHT22;17437;47.188;8.896;2023-06-24T01:34:41;16.40;99.90
30678;DHT22;17437;47.188;8.896;2023-06-24T01:37:16;16.30;99.90
30678;DHT22;17437;47.188;8.896;2023-06-24T01:39:52;16.20;99.90
30678;DHT22;17437;47.188;8.896;2023-06-24T01:42:22;16.20;99.90
30678;DHT22;17437;47.188;8.896;2023-06-24T01:44:55;16.10;99.90
30678;DHT22;17437;47.188;8.896;2023-06-24T01:47:29;16.10;99.90
30678;DHT22;17437;47.188;8.896;2023-06-24T01:50:02;16.10;99.90
30678;DHT22;17437;47.188;8.896;2023-06-24T01:52:36;16.20;99.90
30678;DHT22;17437;47.188;8.896;2023-06-24T01:55:12;16.20;99.90
30678;DHT22;17437;47.188;8.896;2023-06-24T01:57:45;16.20;99.90
30678;DHT22;17437;47.188;8.896;2023-06-24T02:00:18;16.00;99.90
30678;DHT22;17437;47.188;8.896;2023-06-24T02:02:50;15.90;99.90
30678;DHT22;17437;47.188;8.896;2023-06-24T02:05:24;15.80;99.90
30678;DHT22;17437;47.188;8.896;2023-06-24T02:07:57;15.70;99.90
30678;DHT22;17437;47.188;8.896;2023-06-24T02:10:30;15.60;99.90
30678;DHT22;17437;47.188;8.896;2023-06-24T02:13:03;15.60;99.90
30678;DHT22;17437;47.188;8.896;2023-06-24T02:15:36;15.60;99.90
30678;DHT22;17437;47.188;8.896;2023-06-24T02:18:10;15.70;99.90
30678;DHT22;17437;47.188;8.896;2023-06-24T02:20:44;15.70;99.90
30678;DHT22;17437;47.188;8.896;2023-06-24T02:23:17;15.60;99.90
30678;DHT22;17437;47.188;8.896;2023-06-24T02:25:50;15.60;99.90
30678;DHT22;17437;47.188;8.896;2023-06-24T02:28:22;15.60;99.90
30678;DHT22;17437;47.188;8.896;2023-06-24T02:30:54;15.60;99.90
30678;DHT22;17437;47.188;8.896;2023-06-24T02:33:26;15.60;99.90
30678;DHT22;17437;47.188;8.896;2023-06-24T02:35:58;15.50;99.90
30678;DHT22;17437;47.188;8.896;2023-06-24T02:38:33;15.50;99.90
30678;DHT22;17437;47.188;8.896;2023-06-24T02:41:05;15.50;99.90
30678;DHT22;17437;47.188;8.896;2023-06-24T02:43:36;15.40;99.90
30678;DHT22;17437;47.188;8.896;2023-06-24T02:46:08;15.30;99.90
30678;DHT22;17437;47.188;8.896;2023-06-24T02:48:43;15.20;99.90
30678;DHT22;17437;47.188;8.896;2023-06-24T02:51:16;15.20;99.90
30678;DHT22;17437;47.188;8.896;2023-06-24T02:53:48;15.10;99.90
30678;DHT22;17437;47.188;8.896;2023-06-24T02:56:20;15.00;99.90
30678;DHT22;17437;47.188;8.896;2023-06-24T02:58:53;15.00;99.90
30678;DHT22;17437;47.188;8.896;2023-06-24T03:01:25;15.10;99.90
30678;DHT22;17437;47.188;8.896;2023-06-24T03:03:58;15.10;99.90
30678;DHT22;17437;47.188;8.896;2023-06-24T03:06:29;15.10;99.90
30678;DHT22;17437;47.188;8.896;2023-06-24T03:09:02;15.10;99.90
30678;DHT22;17437;47.188;8.896;2023-06-24T03:11:41;15.10;99.90
30678;DHT22;17437;47.188;8.896;2023-06-24T03:14:13;15.00;99.90
30678;DHT22;17437;47.188;8.896;2023-06-24T03:16:45;15.00;99.90
30678;DHT22;17437;47.188;8.896;2023-06-24T03:19:17;14.90;99.90
30678;DHT22;17437;47.188;8.896;2023-06-24T03:21:48;14.90;99.90
30678;DHT22;17437;47.188;8.896;2023-06-24T03:24:20;14.80;99.90
30678;DHT22;17437;47.188;8.896;2023-06-24T03:26:52;14.80;99.90
30678;DHT22;17437;47.188;8.896;2023-06-24T03:29:25;14.70;99.90
30678;DHT22;17437;47.188;8.896;2023-06-24T03:31:56;14.80;99.90
30678;DHT22;17437;47.188;8.896;2023-06-24T03:34:28;14.90;99.90
30678;DHT22;17437;47.188;8.896;2023-06-24T03:37:00;14.90;99.90
30678;DHT22;17437;47.188;8.896;2023-06-24T03:39:35;15.00;99.90
30678;DHT22;17437;47.188;8.896;2023-06-24T03:42:07;15.00;99.90
30678;DHT22;17437;47.188;8.896;2023-06-24T03:44:39;15.00;99.90
30678;DHT22;17437;47.188;8.896;2023-06-24T03:47:10;15.00;99.90
30678;DHT22;17437;47.188;8.896;2023-06-24T03:49:41;15.10;99.90
30678;DHT22;17437;47.188;8.896;2023-06-24T03:52:13;15.10;99.90
30678;DHT22;17437;47.188;8.896;2023-06-24T03:54:45;15.20;99.90
30678;DHT22;17437;47.188;8.896;2023-06-24T03:57:16;15.20;99.90
30678;DHT22;17437;47.188;8.896;2023-06-24T03:59:48;15.20;99.90
30678;DHT22;17437;47.188;8.896;2023-06-24T04:02:19;15.30;99.90
30678;DHT22;17437;47.188;8.896;2023-06-24T04:04:52;15.30;99.90
30678;DHT22;17437;47.188;8.896;2023-06-24T04:07:25;15.30;99.90
30678;DHT22;17437;47.188;8.896;2023-06-24T04:10:01;15.30;99.90
30678;DHT22;17437;47.188;8.896;2023-06-24T04:12:34;15.30;99.90
30678;DHT22;17437;47.188;8.896;2023-06-24T04:15:08;15.30;99.90
30678;DHT22;17437;47.188;8.896;2023-06-24T04:17:40;15.70;99.90
30678;DHT22;17437;47.188;8.896;2023-06-24T04:20:12;16.60;99.90
30678;DHT22;17437;47.188;8.896;2023-06-24T04:22:43;17.60;99.90
30678;DHT22;17437;47.188;8.896;2023-06-24T04:25:15;18.30;99.90
30678;DHT22;17437;47.188;8.896;2023-06-24T04:27:47;18.90;99.90
30678;DHT22;17437;47.188;8.896;2023-06-24T04:30:18;19.40;99.90
30678;DHT22;17437;47.188;8.896;2023-06-24T04:32:50;19.50;99.90
30678;DHT22;17437;47.188;8.896;2023-06-24T04:35:22;19.50;99.90
30678;DHT22;17437;47.188;8.896;2023-06-24T04:37:53;19.70;99.90
30678;DHT22;17437;47.188;8.896;2023-06-24T04:40:25;19.90;99.90
30678;DHT22;17437;47.188;8.896;2023-06-24T04:42:56;19.90;99.90
30678;DHT22;17437;47.188;8.896;2023-06-24T04:45:28;20.30;99.90
30678;DHT22;17437;47.188;8.896;2023-06-24T04:47:59;20.50;99.90
30678;DHT22;17437;47.188;8.896;2023-06-24T04:50:31;20.70;99.90
30678;DHT22;17437;47.188;8.896;2023-06-24T04:53:03;21.10;99.90
30678;DHT22;17437;47.188;8.896;2023-06-24T04:55:35;21.30;99.90
30678;DHT22;17437;47.188;8.896;2023-06-24T04:58:07;22.50;99.90
30678;DHT22;17437;47.188;8.896;2023-06-24T05:00:38;22.80;99.90
30678;DHT22;17437;47.188;8.896;2023-06-24T05:03:10;23.60;99.90
30678;DHT22;17437;47.188;8.896;2023-06-24T05:05:42;24.40;99.90
30678;DHT22;17437;47.188;8.896;2023-06-24T05:08:14;24.90;99.90
30678;DHT22;17437;47.188;8.896;2023-06-24T05:10:45;25.40;99.90
30678;DHT22;17437;47.188;8.896;2023-06-24T05:13:17;25.30;99.90
30678;DHT22;17437;47.188;8.896;2023-06-24T05:15:48;25.70;99.90
30678;DHT22;17437;47.188;8.896;2023-06-24T05:18:20;25.40;99.90
30678;DHT22;17437;47.188;8.896;2023-06-24T05:20:52;25.30;99.90
30678;DHT22;17437;47.188;8.896;2023-06-24T05:23:23;25.10;99.90
30678;DHT22;17437;47.188;8.896;2023-06-24T05:25:55;25.00;99.90
30678;DHT22;17437;47.188;8.896;2023-06-24T05:28:27;24.70;99.90
30678;DHT22;17437;47.188;8.896;2023-06-24T05:30:58;25.10;99.90
30678;DHT22;17437;47.188;8.896;2023-06-24T05:33:30;25.20;99.90
30678;DHT22;17437;47.188;8.896;2023-06-24T05:36:01;25.30;99.90
30678;DHT22;17437;47.188;8.896;2023-06-24T05:38:33;26.40;99.90
30678;DHT22;17437;47.188;8.896;2023-06-24T05:41:05;27.30;99.90
30678;DHT22;17437;47.188;8.896;2023-06-24T05:43:36;27.80;99.70
30678;DHT22;17437;47.188;8.896;2023-06-24T05:46:09;28.00;98.10
30678;DHT22;17437;47.188;8.896;2023-06-24T05:48:42;27.90;98.00
30678;DHT22;17437;47.188;8.896;2023-06-24T05:51:13;27.90;98.10
30678;DHT22;17437;47.188;8.896;2023-06-24T05:53:45;28.60;97.30
30678;DHT22;17437;47.188;8.896;2023-06-24T05:56:17;29.50;95.90
30678;DHT22;17437;47.188;8.896;2023-06-24T05:58:49;30.20;94.10
30678;DHT22;17437;47.188;8.896;2023-06-24T06:01:20;30.50;93.10
30678;DHT22;17437;47.188;8.896;2023-06-24T06:03:52;30.30;92.80
30678;DHT22;17437;47.188;8.896;2023-06-24T06:06:23;30.60;92.10
30678;DHT22;17437;47.188;8.896;2023-06-24T06:08:55;30.90;91.20
30678;DHT22;17437;47.188;8.896;2023-06-24T06:11:27;31.20;91.60
30678;DHT22;17437;47.188;8.896;2023-06-24T06:13:59;31.40;90.70
30678;DHT22;17437;47.188;8.896;2023-06-24T06:16:30;31.30;90.30
30678;DHT22;17437;47.188;8.896;2023-06-24T06:19:02;31.50;89.80
30678;DHT22;17437;47.188;8.896;2023-06-24T06:21:35;31.80;88.30
30678;DHT22;17437;47.188;8.896;2023-06-24T06:24:07;31.60;86.30
30678;DHT22;17437;47.188;8.896;2023-06-24T06:26:42;30.70;87.20
30678;DHT22;17437;47.188;8.896;2023-06-24T06:29:14;30.80;87.70
30678;DHT22;17437;47.188;8.896;2023-06-24T06:31:46;30.90;86.30
30678;DHT22;17437;47.188;8.896;2023-06-24T06:34:19;31.10;85.70
30678;DHT22;17437;47.188;8.896;2023-06-24T06:36:51;31.40;85.50
30678;DHT22;17437;47.188;8.896;2023-06-24T06:39:23;31.60;84.60
30678;DHT22;17437;47.188;8.896;2023-06-24T06:41:54;32.20;84.90
30678;DHT22;17437;47.188;8.896;2023-06-24T06:44:26;32.10;83.20
30678;DHT22;17437;47.188;8.896;2023-06-24T06:46:57;32.20;83.10
30678;DHT22;17437;47.188;8.896;2023-06-24T06:49:29;32.30;83.20
30678;DHT22;17437;47.188;8.896;2023-06-24T06:52:00;32.00;83.70
30678;DHT22;17437;47.188;8.896;2023-06-24T06:54:32;31.90;84.20
30678;DHT22;17437;47.188;8.896;2023-06-24T06:57:05;32.10;84.50
30678;DHT22;17437;47.188;8.896;2023-06-24T06:59:37;32.20;83.60
30678;DHT22;17437;47.188;8.896;2023-06-24T07:02:09;32.00;84.20
30678;DHT22;17437;47.188;8.896;2023-06-24T07:04:41;31.90;83.50
30678;DHT22;17437;47.188;8.896;2023-06-24T07:07:13;31.90;83.30
30678;DHT22;17437;47.188;8.896;2023-06-24T07:09:45;31.90;83.20
30678;DHT22;17437;47.188;8.896;2023-06-24T07:12:18;31.80;82.80
30678;DHT22;17437;47.188;8.896;2023-06-24T07:14:52;31.30;82.80
30678;DHT22;17437;47.188;8.896;2023-06-24T07:17:23;30.80;83.80
30678;DHT22;17437;47.188;8.896;2023-06-24T07:19:55;30.80;86.20
30678;DHT22;17437;47.188;8.896;2023-06-24T07:22:27;30.90;85.50
30678;DHT22;17437;47.188;8.896;2023-06-24T07:25:00;31.10;84.60
30678;DHT22;17437;47.188;8.896;2023-06-24T07:27:31;31.10;83.50
30678;DHT22;17437;47.188;8.896;2023-06-24T07:30:10;31.20;83.70
30678;DHT22;17437;47.188;8.896;2023-06-24T07:32:43;31.00;82.80
30678;DHT22;17437;47.188;8.896;2023-06-24T07:35:16;30.90;83.80
30678;DHT22;17437;47.188;8.896;2023-06-24T07:37:49;30.80;83.30
30678;DHT22;17437;47.188;8.896;2023-06-24T07:40:21;30.70;84.00
30678;DHT22;17437;47.188;8.896;2023-06-24T07:42:54;30.50;83.60
30678;DHT22;17437;47.188;8.896;2023-06-24T07:48:18;28.30;85.60
30678;DHT22;17437;47.188;8.896;2023-06-24T07:50:50;27.40;87.70
30678;DHT22;17437;47.188;8.896;2023-06-24T07:53:21;26.70;88.30
30678;DHT22;17437;47.188;8.896;2023-06-24T07:55:53;26.40;89.60
30678;DHT22;17437;47.188;8.896;2023-06-24T07:58:24;26.00;90.00
30678;DHT22;17437;47.188;8.896;2023-06-24T08:00:56;25.40;90.80
30678;DHT22;17437;47.188;8.896;2023-06-24T08:03:27;25.20;91.00
30678;DHT22;17437;47.188;8.896;2023-06-24T08:06:00;25.00;91.70
30678;DHT22;17437;47.188;8.896;2023-06-24T08:08:31;24.90;92.40
30678;DHT22;17437;47.188;8.896;2023-06-24T08:11:04;24.80;92.60
30678;DHT22;17437;47.188;8.896;2023-06-24T08:13:35;24.50;93.20
30678;DHT22;17437;47.188;8.896;2023-06-24T08:16:07;24.40;93.60
30678;DHT22;17437;47.188;8.896;2023-06-24T08:18:38;24.50;93.50
30678;DHT22;17437;47.188;8.896;2023-06-24T08:21:10;24.50;93.30
30678;DHT22;17437;47.188;8.896;2023-06-24T08:23:41;24.70;93.50
30678;DHT22;17437;47.188;8.896;2023-06-24T08:26:13;24.70;93.80
30678;DHT22;17437;47.188;8.896;2023-06-24T08:28:47;24.90;93.40
30678;DHT22;17437;47.188;8.896;2023-06-24T08:31:19;24.90;93.50
30678;DHT22;17437;47.188;8.896;2023-06-24T08:33:53;24.90;94.40
30678;DHT22;17437;47.188;8.896;2023-06-24T08:36:27;24.90;94.30
30678;DHT22;17437;47.188;8.896;2023-06-24T08:38:59;24.90;93.80
30678;DHT22;17437;47.188;8.896;2023-06-24T08:41:31;24.80;93.50
30678;DHT22;17437;47.188;8.896;2023-06-24T08:44:03;24.70;94.50
30678;DHT22;17437;47.188;8.896;2023-06-24T08:46:35;24.80;94.60
30678;DHT22;17437;47.188;8.896;2023-06-24T08:49:10;24.90;94.90
30678;DHT22;17437;47.188;8.896;2023-06-24T08:51:44;24.60;94.40
30678;DHT22;17437;47.188;8.896;2023-06-24T08:54:17;24.90;94.80
30678;DHT22;17437;47.188;8.896;2023-06-24T08:56:50;24.90;95.10
30678;DHT22;17437;47.188;8.896;2023-06-24T08:59:22;25.00;94.60
30678;DHT22;17437;47.188;8.896;2023-06-24T09:01:53;25.30;94.50
30678;DHT22;17437;47.188;8.896;2023-06-24T09:04:25;25.40;93.50
30678;DHT22;17437;47.188;8.896;2023-06-24T09:06:57;25.00;94.10
30678;DHT22;17437;47.188;8.896;2023-06-24T09:09:28;24.80;94.60
30678;DHT22;17437;47.188;8.896;2023-06-24T09:12:01;24.80;94.30
30678;DHT22;17437;47.188;8.896;2023-06-24T09:14:33;25.10;94.40
30678;DHT22;17437;47.188;8.896;2023-06-24T09:17:04;25.20;94.40
30678;DHT22;17437;47.188;8.896;2023-06-24T09:19:36;25.20;94.20
30678;DHT22;17437;47.188;8.896;2023-06-24T09:22:08;25.70;94.10
30678;DHT22;17437;47.188;8.896;2023-06-24T09:24:43;25.80;93.90
30678;DHT22;17437;47.188;8.896;2023-06-24T09:27:17;25.80;93.60
30678;DHT22;17437;47.188;8.896;2023-06-24T09:29:52;25.80;93.40
30678;DHT22;17437;47.188;8.896;2023-06-24T09:32:27;26.20;93.30
30678;DHT22;17437;47.188;8.896;2023-06-24T09:35:00;26.20;92.70
30678;DHT22;17437;47.188;8.896;2023-06-24T09:37:34;26.50;92.30
30678;DHT22;17437;47.188;8.896;2023-06-24T09:40:08;26.50;92.50
30678;DHT22;17437;47.188;8.896;2023-06-24T09:42:53;27.00;91.60
30678;DHT22;17437;47.188;8.896;2023-06-24T09:45:27;27.30;91.30
30678;DHT22;17437;47.188;8.896;2023-06-24T09:47:58;27.30;91.20
30678;DHT22;17437;47.188;8.896;2023-06-24T09:50:30;27.20;91.40
30678;DHT22;17437;47.188;8.896;2023-06-24T09:53:02;26.90;91.50
30678;DHT22;17437;47.188;8.896;2023-06-24T09:55:34;26.50;91.80
30678;DHT22;17437;47.188;8.896;2023-06-24T09:58:06;26.60;92.60
30678;DHT22;17437;47.188;8.896;2023-06-24T10:00:37;26.70;91.70
30678;DHT22;17437;47.188;8.896;2023-06-24T10:03:09;26.70;92.00
30678;DHT22;17437;47.188;8.896;2023-06-24T10:05:43;27.10;91.80
30678;DHT22;17437;47.188;8.896;2023-06-24T10:08:15;26.80;91.30
30678;DHT22;17437;47.188;8.896;2023-06-24T10:10:49;26.60;91.60
30678;DHT22;17437;47.188;8.896;2023-06-24T10:13:23;26.80;91.70
30678;DHT22;17437;47.188;8.896;2023-06-24T10:15:56;26.80;91.10
30678;DHT22;17437;47.188;8.896;2023-06-24T10:18:35;27.00;90.20
30678;DHT22;17437;47.188;8.896;2023-06-24T10:21:09;27.40;90.00
30678;DHT22;17437;47.188;8.896;2023-06-24T10:23:42;27.50;89.30
30678;DHT22;17437;47.188;8.896;2023-06-24T10:26:24;27.90;86.90
30678;DHT22;17437;47.188;8.896;2023-06-24T10:29:10;27.70;90.90
30678;DHT22;17437;47.188;8.896;2023-06-24T10:31:54;27.80;88.70
30678;DHT22;17437;47.188;8.896;2023-06-24T10:34:53;28.00;86.60
30678;DHT22;17437;47.188;8.896;2023-06-24T10:37:22;27.90;89.10
30678;DHT22;17437;47.188;8.896;2023-06-24T10:39:55;27.70;85.60
30678;DHT22;17437;47.188;8.896;2023-06-24T10:42:38;27.60;86.50
30678;DHT22;17437;47.188;8.896;2023-06-24T10:48:06;27.60;87.50
30678;DHT22;17437;47.188;8.896;2023-06-24T10:50:42;27.60;84.50
30678;DHT22;17437;47.188;8.896;2023-06-24T10:53:14;27.20;86.80
30678;DHT22;17437;47.188;8.896;2023-06-24T10:55:48;27.00;86.60
30678;DHT22;17437;47.188;8.896;2023-06-24T10:58:20;26.90;85.80
30678;DHT22;17437;47.188;8.896;2023-06-24T11:00:52;26.70;85.10
30678;DHT22;17437;47.188;8.896;2023-06-24T11:03:24;26.60;85.70
30678;DHT22;17437;47.188;8.896;2023-06-24T11:05:57;26.60;86.70
30678;DHT22;17437;47.188;8.896;2023-06-24T11:08:28;26.40;87.80
30678;DHT22;17437;47.188;8.896;2023-06-24T11:11:01;26.20;88.50
30678;DHT22;17437;47.188;8.896;2023-06-24T11:13:35;26.00;88.30
30678;DHT22;17437;47.188;8.896;2023-06-24T11:16:06;26.00;90.80
30678;DHT22;17437;47.188;8.896;2023-06-24T11:18:39;26.10;90.30
30678;DHT22;17437;47.188;8.896;2023-06-24T11:21:11;26.20;90.00
30678;DHT22;17437;47.188;8.896;2023-06-24T11:23:43;26.40;90.10
30678;DHT22;17437;47.188;8.896;2023-06-24T11:26:16;26.50;89.10
30678;DHT22;17437;47.188;8.896;2023-06-24T11:28:49;26.60;88.20
30678;DHT22;17437;47.188;8.896;2023-06-24T11:31:24;26.60;88.80
30678;DHT22;17437;47.188;8.896;2023-06-24T11:33:56;26.20;89.30
30678;DHT22;17437;47.188;8.896;2023-06-24T11:36:28;26.10;88.50
30678;DHT22;17437;47.188;8.896;2023-06-24T11:39:00;26.10;88.40
30678;DHT22;17437;47.188;8.896;2023-06-24T11:41:33;26.20;90.00
30678;DHT22;17437;47.188;8.896;2023-06-24T11:44:06;26.30;89.70
30678;DHT22;17437;47.188;8.896;2023-06-24T11:46:38;26.40;88.50
30678;DHT22;17437;47.188;8.896;2023-06-24T11:49:12;26.30;87.10
30678;DHT22;17437;47.188;8.896;2023-06-24T11:51:49;26.10;86.40
30678;DHT22;17437;47.188;8.896;2023-06-24T11:54:21;26.10;89.00
30678;DHT22;17437;47.188;8.896;2023-06-24T11:56:54;26.20;88.10
30678;DHT22;17437;47.188;8.896;2023-06-24T11:59:27;26.30;87.50
30678;DHT22;17437;47.188;8.896;2023-06-24T12:02:00;26.30;86.80
30678;DHT22;17437;47.188;8.896;2023-06-24T12:04:33;26.20;87.40
30678;DHT22;17437;47.188;8.896;2023-06-24T12:07:09;26.20;88.90
30678;DHT22;17437;47.188;8.896;2023-06-24T12:09:41;26.10;87.20
30678;DHT22;17437;47.188;8.896;2023-06-24T12:12:13;26.10;86.80
30678;DHT22;17437;47.188;8.896;2023-06-24T12:14:47;26.10;87.30
30678;DHT22;17437;47.188;8.896;2023-06-24T12:17:19;26.10;86.30
30678;DHT22;17437;47.188;8.896;2023-06-24T12:19:51;26.10;85.10
30678;DHT22;17437;47.188;8.896;2023-06-24T12:22:23;26.10;84.80
30678;DHT22;17437;47.188;8.896;2023-06-24T12:24:57;26.00;85.60
30678;DHT22;17437;47.188;8.896;2023-06-24T12:27:29;26.00;85.20
30678;DHT22;17437;47.188;8.896;2023-06-24T12:30:05;26.20;84.00
30678;DHT22;17437;47.188;8.896;2023-06-24T12:32:37;26.20;85.40
30678;DHT22;17437;47.188;8.896;2023-06-24T12:35:10;26.30;81.90
30678;DHT22;17437;47.188;8.896;2023-06-24T12:37:41;26.10;83.00
30678;DHT22;17437;47.188;8.896;2023-06-24T12:40:19;26.10;85.30
30678;DHT22;17437;47.188;8.896;2023-06-24T12:42:54;26.30;82.90
30678;DHT22;17437;47.188;8.896;2023-06-24T12:45:27;26.30;84.20
30678;DHT22;17437;47.188;8.896;2023-06-24T12:47:59;26.30;82.60
30678;DHT22;17437;47.188;8.896;2023-06-24T12:50:30;26.20;83.00
30678;DHT22;17437;47.188;8.896;2023-06-24T12:53:03;26.10;85.40
30678;DHT22;17437;47.188;8.896;2023-06-24T12:55:34;26.30;85.20
30678;DHT22;17437;47.188;8.896;2023-06-24T12:58:06;26.30;83.90
30678;DHT22;17437;47.188;8.896;2023-06-24T13:00:38;26.40;84.00
30678;DHT22;17437;47.188;8.896;2023-06-24T13:03:10;26.40;82.30
30678;DHT22;17437;47.188;8.896;2023-06-24T13:05:41;26.50;86.50
30678;DHT22;17437;47.188;8.896;2023-06-24T13:08:13;26.60;83.90
30678;DHT22;17437;47.188;8.896;2023-06-24T13:10:44;26.70;83.60
30678;DHT22;17437;47.188;8.896;2023-06-24T13:13:16;26.70;82.50
30678;DHT22;17437;47.188;8.896;2023-06-24T13:15:48;26.60;82.80
30678;DHT22;17437;47.188;8.896;2023-06-24T13:18:19;26.50;83.90
30678;DHT22;17437;47.188;8.896;2023-06-24T13:20:52;26.50;83.60
30678;DHT22;17437;47.188;8.896;2023-06-24T13:23:44;26.50;83.20
30678;DHT22;17437;47.188;8.896;2023-06-24T13:26:21;26.70;85.10
30678;DHT22;17437;47.188;8.896;2023-06-24T13:28:55;26.80;85.50
30678;DHT22;17437;47.188;8.896;2023-06-24T13:31:53;26.90;83.50
30678;DHT22;17437;47.188;8.896;2023-06-24T13:34:26;27.00;83.70
30678;DHT22;17437;47.188;8.896;2023-06-24T13:37:00;27.00;81.00
30678;DHT22;17437;47.188;8.896;2023-06-24T13:39:33;26.70;81.00
30678;DHT22;17437;47.188;8.896;2023-06-24T13:42:09;26.80;82.40
30678;DHT22;17437;47.188;8.896;2023-06-24T13:44:43;26.90;83.50
30678;DHT22;17437;47.188;8.896;2023-06-24T13:47:15;27.00;81.20
30678;DHT22;17437;47.188;8.896;2023-06-24T13:49:49;27.10;80.80
30678;DHT22;17437;47.188;8.896;2023-06-24T13:52:22;27.20;83.20
30678;DHT22;17437;47.188;8.896;2023-06-24T13:54:53;26.90;82.00
30678;DHT22;17437;47.188;8.896;2023-06-24T13:57:26;26.90;83.60
30678;DHT22;17437;47.188;8.896;2023-06-24T13:59:58;26.90;81.90
30678;DHT22;17437;47.188;8.896;2023-06-24T14:02:30;26.90;81.70
30678;DHT22;17437;47.188;8.896;2023-06-24T14:05:04;26.70;82.80
30678;DHT22;17437;47.188;8.896;2023-06-24T14:07:48;26.70;81.90
30678;DHT22;17437;47.188;8.896;2023-06-24T14:10:21;26.70;81.90
30678;DHT22;17437;47.188;8.896;2023-06-24T14:13:01;26.60;82.90
30678;DHT22;17437;47.188;8.896;2023-06-24T14:15:36;26.80;84.60
30678;DHT22;17437;47.188;8.896;2023-06-24T14:18:28;26.80;82.70
30678;DHT22;17437;47.188;8.896;2023-06-24T14:21:04;26.70;82.50
30678;DHT22;17437;47.188;8.896;2023-06-24T15:04:38;26.70;82.90
30678;DHT22;17437;47.188;8.896;2023-06-24T15:07:23;26.60;83.00
30678;DHT22;17437;47.188;8.896;2023-06-24T15:10:02;26.60;82.30
30678;DHT22;17437;47.188;8.896;2023-06-24T15:12:53;26.60;82.60
30678;DHT22;17437;47.188;8.896;2023-06-24T15:15:49;26.70;83.50
30678;DHT22;17437;47.188;8.896;2023-06-24T15:19:10;26.70;82.80
30678;DHT22;17437;47.188;8.896;2023-06-24T22:09:10;20.10;99.20
30678;DHT22;17437;47.188;8.896;2023-06-24T22:11:41;20.10;99.50
30678;DHT22;17437;47.188;8.896;2023-06-24T22:14:13;20.00;99.40
30678;DHT22;17437;47.188;8.896;2023-06-24T22:16:45;20.10;99.20
30678;DHT22;17437;47.188;8.896;2023-06-24T22:19:17;20.10;99.40
30678;DHT22;17437;47.188;8.896;2023-06-24T22:21:52;20.10;99.50
30678;DHT22;17437;47.188;8.896;2023-06-24T22:24:24;20.00;99.60
30678;DHT22;17437;47.188;8.896;2023-06-24T22:26:56;20.10;99.60
30678;DHT22;17437;47.188;8.896;2023-06-24T22:29:27;20.00;99.70
30678;DHT22;17437;47.188;8.896;2023-06-24T22:31:59;20.00;99.70
30678;DHT22;17437;47.188;8.896;2023-06-24T22:34:31;19.90;99.80
30678;DHT22;17437;47.188;8.896;2023-06-24T22:37:03;19.80;99.90
30678;DHT22;17437;47.188;8.896;2023-06-24T22:39:34;19.70;99.90
30678;DHT22;17437;47.188;8.896;2023-06-24T22:42:06;19.60;99.90
30678;DHT22;17437;47.188;8.896;2023-06-24T22:44:40;19.50;99.90
30678;DHT22;17437;47.188;8.896;2023-06-24T22:47:12;19.40;99.90
30678;DHT22;17437;47.188;8.896;2023-06-24T22:49:45;19.30;99.90
30678;DHT22;17437;47.188;8.896;2023-06-24T22:52:17;19.30;99.90
30678;DHT22;17437;47.188;8.896;2023-06-24T22:54:50;19.20;99.90
30678;DHT22;17437;47.188;8.896;2023-06-24T22:57:22;19.20;99.90
30678;DHT22;17437;47.188;8.896;2023-06-24T22:59:53;19.10;99.90
30678;DHT22;17437;47.188;8.896;2023-06-24T23:02:26;19.00;99.90
30678;DHT22;17437;47.188;8.896;2023-06-24T23:04:58;19.00;99.90
30678;DHT22;17437;47.188;8.896;2023-06-24T23:07:30;18.90;99.90
30678;DHT22;17437;47.188;8.896;2023-06-24T23:10:03;19.00;99.90
30678;DHT22;17437;47.188;8.896;2023-06-24T23:12:35;19.00;99.90
30678;DHT22;17437;47.188;8.896;2023-06-24T23:15:10;19.00;99.90
30678;DHT22;17437;47.188;8.896;2023-06-24T23:24:12;19.00;99.90
30678;DHT22;17437;47.188;8.896;2023-06-24T23:26:45;19.00;99.90
30678;DHT22;17437;47.188;8.896;2023-06-24T23:29:19;19.00;99.90
30678;DHT22;17437;47.188;8.896;2023-06-24T23:31:54;18.90;99.90
30678;DHT22;17437;47.188;8.896;2023-06-24T23:34:27;18.90;99.90
30678;DHT22;17437;47.188;8.896;2023-06-24T23:36:59;18.80;99.90
30678;DHT22;17437;47.188;8.896;2023-06-24T23:39:31;18.90;99.90
30678;DHT22;17437;47.188;8.896;2023-06-24T23:42:04;18.90;99.90
30678;DHT22;17437;47.188;8.896;2023-06-24T23:44:36;19.00;99.90
30678;DHT22;17437;47.188;8.896;2023-06-24T23:47:08;18.90;99.90
30678;DHT22;17437;47.188;8.896;2023-06-24T23:49:40;18.90;99.90